createdAt,value
2022-12-31T00:00:53.542Z,100.00
2022-12-31T00:03:20.156Z,100.00
2022-12-31T00:05:52.413Z,100.00
2022-12-31T00:08:19.208Z,100.00
2022-12-31T00:10:45.756Z,100.00
2022-12-31T00:13:15.049Z,100.00
2022-12-31T00:15:44.946Z,100.00
2022-12-31T00:18:12.056Z,100.00
2022-12-31T00:20:39.510Z,100.00
2022-12-31T00:23:10.489Z,100.00
2022-12-31T00:25:37.893Z,100.00
2022-12-31T00:28:05.348Z,100.00
2022-12-31T00:30:42.728Z,100.00
2022-12-31T00:33:10.991Z,100.00
2022-12-31T00:35:40.733Z,100.00
2022-12-31T00:38:09.790Z,100.00
2022-12-31T00:40:36.769Z,100.00
2022-12-31T00:43:03.876Z,100.00
2022-12-31T00:45:33.127Z,100.00
2022-12-31T00:48:00.150Z,100.00
2022-12-31T00:50:29.986Z,100.00
2022-12-31T00:52:56.748Z,100.00
2022-12-31T00:55:26.250Z,100.00
2022-12-31T00:58:00.608Z,100.00
2022-12-31T01:00:27.588Z,100.00
2022-12-31T01:03:02.602Z,100.00
2022-12-31T01:05:33.891Z,100.00
2022-12-31T01:08:03.305Z,100.00
2022-12-31T01:10:48.880Z,100.00
2022-12-31T01:13:17.128Z,100.00
2022-12-31T01:15:49.465Z,100.00
2022-12-31T01:18:24.532Z,100.00
2022-12-31T01:20:54.225Z,100.00
2022-12-31T01:23:23.550Z,100.00
2022-12-31T01:25:54.954Z,100.00
2022-12-31T01:28:31.007Z,100.00
2022-12-31T01:30:58.262Z,100.00
2022-12-31T01:33:34.046Z,100.00
2022-12-31T01:36:05.688Z,100.00
2022-12-31T01:38:33.047Z,100.00
2022-12-31T01:40:59.612Z,100.00
2022-12-31T01:43:46.459Z,100.00
2022-12-31T01:46:14.556Z,100.00
2022-12-31T01:48:41.149Z,100.00
2022-12-31T01:51:17.611Z,100.00
2022-12-31T01:53:44.144Z,100.00
2022-12-31T01:56:11.556Z,100.00
2022-12-31T01:58:44.355Z,100.00
2022-12-31T02:01:13.949Z,100.00
2022-12-31T02:03:41.231Z,100.00
2022-12-31T02:06:10.765Z,100.00
2022-12-31T02:08:41.946Z,100.00
2022-12-31T02:11:29.256Z,100.00
2022-12-31T02:13:58.913Z,100.00
2022-12-31T02:16:46.320Z,100.00
2022-12-31T02:19:31.626Z,100.00
2022-12-31T02:22:21.113Z,100.00
2022-12-31T02:25:26.204Z,100.00
2022-12-31T02:28:11.723Z,100.00
2022-12-31T02:30:40.371Z,100.00
2022-12-31T02:33:18.450Z,100.00
2022-12-31T02:35:48.416Z,100.00
2022-12-31T02:38:36.633Z,100.00
2022-12-31T02:41:06.105Z,100.00
2022-12-31T02:43:35.553Z,100.00
2022-12-31T02:46:02.191Z,100.00
2022-12-31T02:48:47.191Z,100.00
2022-12-31T02:51:29.322Z,100.00
2022-12-31T02:54:25.926Z,100.00
2022-12-31T02:57:07.827Z,100.00
2022-12-31T02:59:57.701Z,100.00
2022-12-31T03:02:28.161Z,100.00
2022-12-31T03:04:55.996Z,100.00
2022-12-31T03:07:27.010Z,100.00
2022-12-31T03:09:53.956Z,100.00
2022-12-31T03:12:40.250Z,100.00
2022-12-31T03:15:19.876Z,100.00
2022-12-31T03:17:54.936Z,100.00
2022-12-31T03:20:41.414Z,100.00
2022-12-31T03:23:09.804Z,100.00
2022-12-31T03:25:37.879Z,100.00
2022-12-31T03:28:09.647Z,100.00
2022-12-31T03:30:37.130Z,100.00
2022-12-31T03:33:04.640Z,100.00
2022-12-31T03:35:32.179Z,100.00
2022-12-31T03:37:58.939Z,100.00
2022-12-31T03:40:26.919Z,100.00
2022-12-31T03:42:53.572Z,100.00
2022-12-31T03:45:20.741Z,100.00
2022-12-31T03:47:47.926Z,100.00
2022-12-31T03:50:15.560Z,100.00
2022-12-31T03:52:42.098Z,100.00
2022-12-31T03:55:09.569Z,100.00
2022-12-31T03:57:36.374Z,100.00
2022-12-31T04:00:04.566Z,100.00
2022-12-31T04:02:31.339Z,100.00
2022-12-31T04:04:58.165Z,100.00
2022-12-31T04:07:24.764Z,100.00
2022-12-31T04:09:51.304Z,100.00
2022-12-31T04:12:17.928Z,100.00
2022-12-31T04:14:44.670Z,100.00
2022-12-31T04:17:11.213Z,100.00
2022-12-31T04:19:40.400Z,100.00
2022-12-31T04:22:07.268Z,100.00
2022-12-31T04:24:33.924Z,100.00
2022-12-31T04:27:05.527Z,100.00
2022-12-31T04:29:34.550Z,100.00
2022-12-31T04:32:01.964Z,100.00
2022-12-31T04:34:28.672Z,100.00
2022-12-31T04:36:56.305Z,100.00
2022-12-31T04:39:22.973Z,100.00
2022-12-31T04:41:55.926Z,100.00
2022-12-31T04:44:22.471Z,100.00
2022-12-31T04:46:49.033Z,100.00
2022-12-31T04:49:18.727Z,100.00
2022-12-31T04:51:45.277Z,100.00
2022-12-31T04:54:16.710Z,100.00
2022-12-31T04:56:43.305Z,100.00
2022-12-31T04:59:10.425Z,100.00
2022-12-31T05:01:37.320Z,100.00
2022-12-31T05:04:09.476Z,100.00
2022-12-31T05:06:36.072Z,100.00
2022-12-31T05:09:02.572Z,100.00
2022-12-31T05:11:29.553Z,100.00
2022-12-31T05:13:56.050Z,100.00
2022-12-31T05:16:22.810Z,100.00
2022-12-31T05:18:49.373Z,100.00
2022-12-31T05:21:19.104Z,100.00
2022-12-31T05:23:45.596Z,100.00
2022-12-31T05:26:15.389Z,100.00
2022-12-31T05:28:41.927Z,100.00
2022-12-31T05:31:08.562Z,100.00
2022-12-31T05:33:38.054Z,100.00
2022-12-31T05:36:04.802Z,100.00
2022-12-31T05:38:31.323Z,100.00
2022-12-31T05:41:01.490Z,100.00
2022-12-31T05:43:28.382Z,100.00
2022-12-31T05:45:54.979Z,100.00
2022-12-31T05:48:21.556Z,100.00
2022-12-31T05:50:48.763Z,100.00
2022-12-31T05:53:15.390Z,100.00
2022-12-31T05:55:42.000Z,100.00
2022-12-31T05:58:08.598Z,100.00
2022-12-31T06:00:35.089Z,100.00
2022-12-31T06:03:01.838Z,100.00
2022-12-31T06:05:29.849Z,100.00
2022-12-31T06:07:56.529Z,100.00
2022-12-31T06:10:23.143Z,100.00
2022-12-31T06:12:49.790Z,100.00
2022-12-31T06:15:16.591Z,100.00
2022-12-31T06:17:43.167Z,100.00
2022-12-31T06:20:13.080Z,100.00
2022-12-31T06:22:40.187Z,100.00
2022-12-31T06:25:06.908Z,100.00
2022-12-31T06:27:33.406Z,100.00
2022-12-31T06:29:59.949Z,100.00
2022-12-31T06:32:26.533Z,100.00
2022-12-31T06:34:53.161Z,100.00
2022-12-31T06:37:19.678Z,100.00
2022-12-31T06:39:46.215Z,100.00
2022-12-31T06:42:14.230Z,100.00
2022-12-31T06:44:41.300Z,100.00
2022-12-31T06:47:08.044Z,100.00
2022-12-31T06:49:34.621Z,100.00
2022-12-31T06:52:01.293Z,100.00
2022-12-31T06:54:27.940Z,100.00
2022-12-31T06:56:54.856Z,100.00
2022-12-31T06:59:25.986Z,100.00
2022-12-31T07:01:52.516Z,100.00
2022-12-31T07:04:28.501Z,100.00
2022-12-31T07:07:01.688Z,100.00
2022-12-31T07:09:51.528Z,100.00
2022-12-31T07:12:39.582Z,100.00
2022-12-31T07:15:12.156Z,100.00
2022-12-31T07:17:47.833Z,100.00
2022-12-31T07:20:17.709Z,100.00
2022-12-31T07:22:45.414Z,100.00
2022-12-31T07:25:20.399Z,100.00
2022-12-31T07:27:59.634Z,100.00
2022-12-31T07:30:29.339Z,100.00
2022-12-31T07:32:59.943Z,100.00
2022-12-31T07:35:41.803Z,100.00
2022-12-31T07:38:15.599Z,100.00
2022-12-31T07:41:05.521Z,100.00
2022-12-31T07:43:41.253Z,100.00
2022-12-31T07:46:22.715Z,100.00
2022-12-31T07:48:49.501Z,100.00
2022-12-31T07:51:16.318Z,100.00
2022-12-31T07:53:43.064Z,100.00
2022-12-31T07:56:10.132Z,100.00
2022-12-31T07:58:42.772Z,100.00
2022-12-31T08:01:11.785Z,100.00
2022-12-31T08:03:55.039Z,100.00
2022-12-31T08:06:27.823Z,100.00
2022-12-31T08:09:16.856Z,100.00
2022-12-31T08:11:47.686Z,100.00
2022-12-31T08:14:14.987Z,100.00
2022-12-31T08:16:42.110Z,100.00
2022-12-31T08:19:16.779Z,100.00
2022-12-31T08:21:52.771Z,100.00
2022-12-31T08:24:35.328Z,100.00
2022-12-31T08:27:10.921Z,100.00
2022-12-31T08:29:45.905Z,100.00
2022-12-31T08:32:27.688Z,100.00
2022-12-31T08:35:14.137Z,100.00
2022-12-31T08:37:43.822Z,100.00
2022-12-31T08:40:18.864Z,100.00
2022-12-31T08:43:04.251Z,100.00
2022-12-31T08:45:43.475Z,100.00
2022-12-31T08:48:29.961Z,100.00
2022-12-31T08:50:57.040Z,100.00
2022-12-31T08:53:23.781Z,100.00
2022-12-31T08:55:54.015Z,100.00
2022-12-31T08:58:38.849Z,100.00
2022-12-31T09:01:06.622Z,100.00
2022-12-31T09:03:39.326Z,100.00
2022-12-31T09:06:24.610Z,100.00
2022-12-31T09:08:58.758Z,100.00
2022-12-31T09:11:31.092Z,100.00
2022-12-31T09:14:06.891Z,100.00
2022-12-31T09:16:40.596Z,100.00
2022-12-31T09:19:09.004Z,100.00
2022-12-31T09:21:37.746Z,100.00
2022-12-31T09:24:09.623Z,100.00
2022-12-31T09:26:43.467Z,100.00
2022-12-31T09:29:19.389Z,100.00
2022-12-31T09:31:51.664Z,100.00
2022-12-31T09:34:21.261Z,100.00
2022-12-31T09:36:53.880Z,100.00
2022-12-31T09:39:27.793Z,100.00
2022-12-31T09:42:06.064Z,100.00
2022-12-31T09:44:38.839Z,100.00
2022-12-31T09:47:05.445Z,100.00
2022-12-31T09:49:44.476Z,100.00
2022-12-31T09:52:27.104Z,100.00
2022-12-31T09:55:00.467Z,100.00
2022-12-31T09:57:27.096Z,100.00
2022-12-31T10:00:12.087Z,100.00
2022-12-31T10:02:48.037Z,100.00
2022-12-31T10:05:14.608Z,100.00
2022-12-31T10:07:41.203Z,100.00
2022-12-31T10:10:21.645Z,100.00
2022-12-31T10:12:54.246Z,100.00
2022-12-31T10:15:30.009Z,100.00
2022-12-31T10:18:00.518Z,100.00
2022-12-31T10:20:33.541Z,100.00
2022-12-31T10:23:19.081Z,100.00
2022-12-31T10:26:07.373Z,98.78
2022-12-31T10:28:46.277Z,99.14
2022-12-31T10:31:13.555Z,99.09
2022-12-31T10:34:02.510Z,99.63
2022-12-31T10:36:31.124Z,99.40
2022-12-31T10:39:10.734Z,97.93
2022-12-31T10:41:50.041Z,98.74
2022-12-31T10:44:34.849Z,99.39
2022-12-31T10:47:08.025Z,99.53
2022-12-31T10:49:38.223Z,99.83
2022-12-31T10:52:25.129Z,98.61
2022-12-31T10:55:05.416Z,99.00
2022-12-31T10:57:55.370Z,100.00
2022-12-31T11:00:27.387Z,99.41
2022-12-31T11:03:09.728Z,99.31
2022-12-31T11:05:48.576Z,100.00
2022-12-31T11:08:36.799Z,98.74
2022-12-31T11:11:22.265Z,100.00
2022-12-31T11:13:52.054Z,100.00
2022-12-31T11:16:27.854Z,100.00
2022-12-31T11:18:57.566Z,100.00
2022-12-31T11:21:28.282Z,100.00
2022-12-31T11:24:12.754Z,100.00
2022-12-31T11:26:57.641Z,100.00
2022-12-31T11:29:38.757Z,100.00
2022-12-31T11:32:11.448Z,100.00
2022-12-31T11:34:37.973Z,100.00
2022-12-31T11:37:23.089Z,100.00
2022-12-31T11:40:04.902Z,100.00
2022-12-31T11:42:41.145Z,99.22
2022-12-31T11:45:10.866Z,98.77
2022-12-31T11:48:28.392Z,98.70
2022-12-31T11:50:56.782Z,97.83
2022-12-31T11:53:31.065Z,95.63
2022-12-31T11:56:10.047Z,96.64
2022-12-31T11:58:36.908Z,93.82
2022-12-31T12:01:03.493Z,94.99
2022-12-31T12:03:30.704Z,94.62
2022-12-31T12:06:00.607Z,94.58
2022-12-31T12:08:30.385Z,93.56
2022-12-31T12:11:22.283Z,94.03
2022-12-31T12:13:48.835Z,93.58
2022-12-31T12:16:16.030Z,94.08
2022-12-31T12:18:46.787Z,93.89
2022-12-31T12:21:17.666Z,93.96
2022-12-31T12:23:57.949Z,95.11
2022-12-31T12:26:29.827Z,95.24
2022-12-31T12:28:59.703Z,94.99
2022-12-31T12:31:27.602Z,95.49
2022-12-31T12:33:54.220Z,95.74
2022-12-31T12:36:21.452Z,94.93
2022-12-31T12:38:48.134Z,95.20
2022-12-31T12:41:22.189Z,95.21
2022-12-31T12:43:48.672Z,95.87
2022-12-31T12:46:20.459Z,94.93
2022-12-31T12:48:47.946Z,95.91
2022-12-31T12:51:26.739Z,96.85
2022-12-31T12:53:53.350Z,95.34
2022-12-31T12:56:27.660Z,94.37
2022-12-31T12:58:54.239Z,93.19
2022-12-31T13:01:38.501Z,93.19
2022-12-31T13:04:33.990Z,93.41
2022-12-31T13:07:01.350Z,93.25
2022-12-31T13:09:34.298Z,93.04
2022-12-31T13:12:10.478Z,92.39
2022-12-31T13:14:52.416Z,92.93
2022-12-31T13:17:18.885Z,92.51
2022-12-31T13:19:48.415Z,92.10
2022-12-31T13:22:20.422Z,92.58
2022-12-31T13:25:04.045Z,92.79
2022-12-31T13:27:35.851Z,93.89
2022-12-31T13:30:04.046Z,95.25
2022-12-31T13:32:36.638Z,95.08
2022-12-31T13:35:07.135Z,93.45
2022-12-31T13:37:39.830Z,92.60
2022-12-31T13:40:25.628Z,92.34
2022-12-31T13:42:54.904Z,91.98
2022-12-31T13:45:24.873Z,92.52
2022-12-31T13:47:54.537Z,92.81
2022-12-31T13:50:33.373Z,91.42
2022-12-31T13:53:29.731Z,92.32
2022-12-31T13:56:02.163Z,92.18
2022-12-31T13:58:34.488Z,93.45
2022-12-31T14:01:01.092Z,92.75
2022-12-31T14:03:38.522Z,91.46
2022-12-31T14:06:13.850Z,92.36
2022-12-31T14:08:40.503Z,92.57
2022-12-31T14:11:14.726Z,91.25
2022-12-31T14:13:44.253Z,92.75
2022-12-31T14:16:19.668Z,91.10
2022-12-31T14:19:09.076Z,91.30
2022-12-31T14:21:35.578Z,91.63
2022-12-31T14:24:14.621Z,92.20
2022-12-31T14:26:44.345Z,91.74
2022-12-31T14:29:11.130Z,91.41
2022-12-31T14:31:56.706Z,90.49
2022-12-31T14:34:41.702Z,93.12
2022-12-31T14:37:14.086Z,92.60
2022-12-31T14:39:43.417Z,94.45
2022-12-31T14:42:22.148Z,94.41
2022-12-31T14:45:04.161Z,95.30
2022-12-31T14:47:36.049Z,95.46
2022-12-31T14:50:13.940Z,95.75
2022-12-31T14:53:15.967Z,96.82
2022-12-31T14:55:42.584Z,97.44
2022-12-31T14:58:28.138Z,97.67
2022-12-31T15:00:57.081Z,98.74
2022-12-31T15:03:27.822Z,98.79
2022-12-31T15:06:12.966Z,98.26
2022-12-31T15:09:07.676Z,99.17
2022-12-31T15:11:42.149Z,98.66
2022-12-31T15:14:26.541Z,99.60
2022-12-31T15:16:58.485Z,99.25
2022-12-31T15:19:37.579Z,99.11
2022-12-31T15:22:27.478Z,99.25
2022-12-31T15:24:54.147Z,100.00
2022-12-31T15:27:29.796Z,99.76
2022-12-31T15:29:56.469Z,100.00
2022-12-31T15:32:28.207Z,100.00
2022-12-31T15:35:13.254Z,100.00
2022-12-31T15:37:39.748Z,100.00
2022-12-31T15:40:32.416Z,100.00
2022-12-31T15:43:02.929Z,100.00
2022-12-31T15:45:33.291Z,100.00
2022-12-31T15:48:02.329Z,100.00
2022-12-31T15:50:32.187Z,98.29
2022-12-31T15:53:05.046Z,98.41
2022-12-31T15:55:34.349Z,97.78
2022-12-31T15:58:05.108Z,98.77
2022-12-31T16:00:43.605Z,99.43
2022-12-31T16:03:20.089Z,100.00
2022-12-31T16:05:46.593Z,100.00
2022-12-31T16:08:17.333Z,100.00
2022-12-31T16:10:44.235Z,100.00
2022-12-31T16:13:18.482Z,100.00
2022-12-31T16:15:48.672Z,100.00
2022-12-31T16:18:22.733Z,100.00
2022-12-31T16:20:51.844Z,100.00
2022-12-31T16:23:23.102Z,100.00
2022-12-31T16:25:50.564Z,100.00
2022-12-31T16:28:18.970Z,100.00
2022-12-31T16:30:45.624Z,100.00
2022-12-31T16:33:14.504Z,98.61
2022-12-31T16:35:41.568Z,99.02
2022-12-31T16:38:08.185Z,100.00
2022-12-31T16:40:34.798Z,99.30
2022-12-31T16:43:01.605Z,99.16
2022-12-31T16:45:35.802Z,98.59
2022-12-31T16:48:19.065Z,97.53
2022-12-31T16:50:46.322Z,96.89
2022-12-31T16:53:17.464Z,96.19
2022-12-31T16:55:52.730Z,95.91
2022-12-31T16:58:27.545Z,95.76
2022-12-31T17:00:55.823Z,94.59
2022-12-31T17:03:31.722Z,94.17
2022-12-31T17:06:12.439Z,93.62
2022-12-31T17:08:38.911Z,94.12
2022-12-31T17:11:05.741Z,94.57
2022-12-31T17:13:36.495Z,93.75
2022-12-31T17:16:03.625Z,93.52
2022-12-31T17:18:35.853Z,92.36
2022-12-31T17:21:08.429Z,93.67
2022-12-31T17:23:38.329Z,93.42
2022-12-31T17:26:07.805Z,92.09
2022-12-31T17:28:45.020Z,92.56
2022-12-31T17:31:28.543Z,92.03
2022-12-31T17:34:05.099Z,90.66
2022-12-31T17:36:31.885Z,91.37
2022-12-31T17:39:18.739Z,90.58
2022-12-31T17:41:46.447Z,90.63
2022-12-31T17:44:32.900Z,91.11
2022-12-31T17:47:03.312Z,91.98
2022-12-31T17:49:31.010Z,92.40
2022-12-31T17:51:57.910Z,90.10
2022-12-31T17:54:26.847Z,91.26
2022-12-31T17:56:53.989Z,92.11
2022-12-31T17:59:25.634Z,91.57
2022-12-31T18:01:52.309Z,90.08
2022-12-31T18:04:25.731Z,91.14
2022-12-31T18:06:56.399Z,90.54
2022-12-31T18:09:23.202Z,91.48
2022-12-31T18:11:50.080Z,91.98
2022-12-31T18:14:22.347Z,90.98
2022-12-31T18:16:48.963Z,91.25
2022-12-31T18:19:45.859Z,90.61
2022-12-31T18:22:04.961Z,91.44
2022-12-31T18:24:45.751Z,91.12
2022-12-31T18:27:18.955Z,91.31
2022-12-31T18:29:45.515Z,91.23
2022-12-31T18:32:35.071Z,91.45
2022-12-31T18:35:03.200Z,91.89
2022-12-31T18:37:33.709Z,91.63
2022-12-31T18:40:07.516Z,92.06
2022-12-31T18:42:34.327Z,92.78
2022-12-31T18:45:03.255Z,93.04
2022-12-31T18:47:35.820Z,92.74
2022-12-31T18:50:04.195Z,93.23
2022-12-31T18:52:30.644Z,94.58
2022-12-31T18:54:57.079Z,94.47
2022-12-31T18:57:23.537Z,96.57
2022-12-31T18:59:50.175Z,97.29
2022-12-31T19:02:18.882Z,98.04
2022-12-31T19:04:45.639Z,97.95
2022-12-31T19:07:12.187Z,98.26
2022-12-31T19:09:47.166Z,97.46
2022-12-31T19:12:14.730Z,98.45
2022-12-31T19:14:41.229Z,98.14
2022-12-31T19:19:33.031Z,100.00
2022-12-31T19:21:59.467Z,99.82
2022-12-31T19:24:28.370Z,100.00
2022-12-31T19:26:55.209Z,99.39
2022-12-31T19:29:21.657Z,99.64
2022-12-31T19:31:48.230Z,99.75
2022-12-31T19:34:14.702Z,100.00
2022-12-31T19:36:44.076Z,99.36
2022-12-31T19:39:14.333Z,99.43
2022-12-31T19:41:42.303Z,99.09
2022-12-31T19:44:15.949Z,99.12
2022-12-31T19:46:42.495Z,99.68
2022-12-31T19:49:12.611Z,98.90
2022-12-31T19:51:39.507Z,98.68
2022-12-31T19:54:06.068Z,98.82
2022-12-31T19:56:32.590Z,98.58
2022-12-31T19:59:03.090Z,98.04
2022-12-31T20:01:29.619Z,97.87
2022-12-31T20:03:56.551Z,96.38
2022-12-31T20:06:23.021Z,96.52
2022-12-31T20:08:49.527Z,94.57
2022-12-31T20:11:18.677Z,93.95
2022-12-31T20:13:46.054Z,94.27
2022-12-31T20:16:14.055Z,93.04
2022-12-31T20:18:41.320Z,92.33
2022-12-31T20:21:12.200Z,93.07
2022-12-31T20:23:39.362Z,92.46
2022-12-31T20:26:05.943Z,91.69
2022-12-31T20:28:32.450Z,92.04
2022-12-31T20:30:59.040Z,90.75
2022-12-31T20:33:25.664Z,91.26
2022-12-31T20:35:52.236Z,91.37
2022-12-31T20:38:18.765Z,90.64
2022-12-31T20:40:47.039Z,90.18
2022-12-31T20:43:13.865Z,90.01
2022-12-31T20:45:41.258Z,89.09
2022-12-31T20:48:07.854Z,87.66
2022-12-31T20:50:34.331Z,88.20
2022-12-31T20:53:00.890Z,87.93
2022-12-31T20:55:27.549Z,88.07
2022-12-31T20:57:54.013Z,88.21
2022-12-31T21:00:20.573Z,87.17
2022-12-31T21:02:55.512Z,86.96
2022-12-31T21:05:24.499Z,87.67
2022-12-31T21:07:51.921Z,86.72
2022-12-31T21:10:18.427Z,88.10
2022-12-31T21:12:44.980Z,87.61
2022-12-31T21:15:12.465Z,86.52
2022-12-31T21:17:39.140Z,87.81
2022-12-31T21:20:05.890Z,88.69
2022-12-31T21:22:33.858Z,87.15
2022-12-31T21:25:01.335Z,86.75
2022-12-31T21:27:28.613Z,86.12
2022-12-31T21:30:17.795Z,87.38
2022-12-31T21:32:42.041Z,86.85
2022-12-31T21:35:40.728Z,86.40
2022-12-31T21:37:57.907Z,85.01
2022-12-31T21:40:26.836Z,84.27
2022-12-31T21:42:53.276Z,84.28
2022-12-31T21:45:19.710Z,84.55
2022-12-31T21:48:04.529Z,84.62
2022-12-31T21:50:31.104Z,84.05
2022-12-31T21:52:57.592Z,83.83
2022-12-31T21:55:42.742Z,83.86
2022-12-31T21:58:26.536Z,84.48
2022-12-31T22:01:12.818Z,84.01
2022-12-31T22:03:39.501Z,84.38
2022-12-31T22:06:10.794Z,83.72
2022-12-31T22:08:37.795Z,84.37
2022-12-31T22:11:04.365Z,84.07
2022-12-31T22:13:31.203Z,83.17
2022-12-31T22:16:04.275Z,82.80
2022-12-31T22:18:34.081Z,83.17
2022-12-31T22:21:20.913Z,83.26
2022-12-31T22:23:48.431Z,83.34
2022-12-31T22:26:16.073Z,83.74
2022-12-31T22:28:43.130Z,83.57
2022-12-31T22:31:12.401Z,82.68
2022-12-31T22:33:38.980Z,82.63
2022-12-31T22:36:07.134Z,82.39
2022-12-31T22:38:34.563Z,82.99
2022-12-31T22:41:12.018Z,83.09
2022-12-31T22:43:39.947Z,82.06
2022-12-31T22:46:11.249Z,82.23
2022-12-31T22:48:38.124Z,81.93
2022-12-31T22:51:04.732Z,81.13
2022-12-31T22:53:31.173Z,82.00
2022-12-31T22:55:57.671Z,81.29
2022-12-31T22:58:24.591Z,81.50
2022-12-31T23:00:51.528Z,81.81
2022-12-31T23:03:18.100Z,83.05
2022-12-31T23:05:44.978Z,82.13
2022-12-31T23:08:20.538Z,81.88
2022-12-31T23:11:06.079Z,83.31
2022-12-31T23:13:56.214Z,82.31
2022-12-31T23:16:41.912Z,82.65
2022-12-31T23:19:26.875Z,81.81
2022-12-31T23:22:12.342Z,82.62
2022-12-31T23:24:38.913Z,81.81
2022-12-31T23:27:06.044Z,82.21
2022-12-31T23:29:32.979Z,81.21
2022-12-31T23:31:59.455Z,81.64
2022-12-31T23:34:25.905Z,81.97
2022-12-31T23:36:52.415Z,82.01
2022-12-31T23:39:18.930Z,80.40
2022-12-31T23:41:45.389Z,80.45
2022-12-31T23:44:14.834Z,81.21
2022-12-31T23:46:42.329Z,80.19
2022-12-31T23:49:08.889Z,80.02
2022-12-31T23:51:36.571Z,80.01
2022-12-31T23:54:06.176Z,79.95
2022-12-31T23:56:32.789Z,79.53
2022-12-31T23:58:59.736Z,78.14
